sensor_id;sensor_type;location;lat;lon;timestamp;pressure;altitude;pressure_sealevel;temperature;humidity
77702;BME280;66868;42.708;23.404;2024-02-21T00:01:35;95788.97;;;5.52;93.66
77702;BME280;66868;42.708;23.404;2024-02-21T00:04:00;95832.56;;;5.81;93.66
77702;BME280;66868;42.708;23.404;2024-02-21T00:06:26;95849.81;;;5.93;92.88
77702;BME280;66868;42.708;23.404;2024-02-21T00:08:51;95842.25;;;5.94;92.67
77702;BME280;66868;42.708;23.404;2024-02-21T00:11:17;95830.84;;;5.83;92.47
77702;BME280;66868;42.708;23.404;2024-02-21T00:13:42;95840.50;;;5.96;92.62
77702;BME280;66868;42.708;23.404;2024-02-21T00:16:08;95838.94;;;5.92;92.25
77702;BME280;66868;42.708;23.404;2024-02-21T00:18:33;95838.28;;;5.86;92.28
77702;BME280;66868;42.708;23.404;2024-02-21T00:20:58;95837.47;;;5.84;92.30
77702;BME280;66868;42.708;23.404;2024-02-21T00:23:27;95831.53;;;5.88;93.05
77702;BME280;66868;42.708;23.404;2024-02-21T00:25:52;95833.19;;;5.89;93.00
77702;BME280;66868;42.708;23.404;2024-02-21T00:28:18;95833.13;;;5.92;92.24
77702;BME280;66868;42.708;23.404;2024-02-21T00:30:43;95833.91;;;5.92;92.20
77702;BME280;66868;42.708;23.404;2024-02-21T00:33:09;95830.66;;;5.89;92.67
77702;BME280;66868;42.708;23.404;2024-02-21T00:35:34;95835.84;;;5.83;92.32
77702;BME280;66868;42.708;23.404;2024-02-21T00:38:00;95828.47;;;5.76;92.56
77702;BME280;66868;42.708;23.404;2024-02-21T00:40:25;95822.84;;;5.68;93.25
77702;BME280;66868;42.708;23.404;2024-02-21T00:42:51;95828.81;;;5.64;92.85
77702;BME280;66868;42.708;23.404;2024-02-21T00:45:16;95798.94;;;5.55;92.67
77702;BME280;66868;42.708;23.404;2024-02-21T00:47:42;95814.53;;;5.66;92.90
77702;BME280;66868;42.708;23.404;2024-02-21T00:50:08;95827.06;;;5.68;92.88
77702;BME280;66868;42.708;23.404;2024-02-21T00:52:34;95819.91;;;5.54;93.88
77702;BME280;66868;42.708;23.404;2024-02-21T00:55:00;95823.78;;;5.64;93.24
77702;BME280;66868;42.708;23.404;2024-02-21T00:57:26;95827.25;;;5.60;93.18
77702;BME280;66868;42.708;23.404;2024-02-21T00:59:51;95818.00;;;5.62;93.21
77702;BME280;66868;42.708;23.404;2024-02-21T01:02:17;95814.69;;;5.60;93.52
77702;BME280;66868;42.708;23.404;2024-02-21T01:04:43;95815.66;;;5.56;93.87
77702;BME280;66868;42.708;23.404;2024-02-21T01:07:08;95815.41;;;5.65;93.48
77702;BME280;66868;42.708;23.404;2024-02-21T01:09:34;95811.91;;;5.69;92.60
77702;BME280;66868;42.708;23.404;2024-02-21T01:11:59;95804.22;;;5.75;93.32
77702;BME280;66868;42.708;23.404;2024-02-21T01:14:24;95798.63;;;5.66;92.81
77702;BME280;66868;42.708;23.404;2024-02-21T01:16:50;95803.53;;;5.70;93.19
77702;BME280;66868;42.708;23.404;2024-02-21T01:19:15;95795.22;;;5.68;93.09
77702;BME280;66868;42.708;23.404;2024-02-21T01:21:41;95795.09;;;5.73;92.91
77702;BME280;66868;42.708;23.404;2024-02-21T01:24:06;95773.66;;;5.61;92.67
77702;BME280;66868;42.708;23.404;2024-02-21T01:26:32;95792.59;;;5.73;92.82
77702;BME280;66868;42.708;23.404;2024-02-21T01:28:57;95793.31;;;5.76;92.89
77702;BME280;66868;42.708;23.404;2024-02-21T01:31:23;95794.22;;;5.74;93.00
77702;BME280;66868;42.708;23.404;2024-02-21T01:33:48;95786.91;;;5.66;92.64
77702;BME280;66868;42.708;23.404;2024-02-21T01:36:13;95791.13;;;5.64;92.48
77702;BME280;66868;42.708;23.404;2024-02-21T01:38:39;95773.78;;;5.57;92.42
77702;BME280;66868;42.708;23.404;2024-02-21T01:41:04;95781.97;;;5.63;92.30
77702;BME280;66868;42.708;23.404;2024-02-21T01:43:30;95777.91;;;5.59;93.18
77702;BME280;66868;42.708;23.404;2024-02-21T01:45:56;95777.94;;;5.58;92.96
77702;BME280;66868;42.708;23.404;2024-02-21T01:48:23;95759.81;;;5.48;92.80
77702;BME280;66868;42.708;23.404;2024-02-21T01:50:53;95747.56;;;5.38;92.46
77702;BME280;66868;42.708;23.404;2024-02-21T01:53:25;95776.31;;;5.57;93.12
77702;BME280;66868;42.708;23.404;2024-02-21T01:55:53;95768.03;;;5.53;92.61
77702;BME280;66868;42.708;23.404;2024-02-21T01:58:19;95772.13;;;5.56;92.57
77702;BME280;66868;42.708;23.404;2024-02-21T02:00:45;95747.53;;;5.39;93.00
77702;BME280;66868;42.708;23.404;2024-02-21T02:03:12;95769.75;;;5.51;92.92
77702;BME280;66868;42.708;23.404;2024-02-21T02:05:48;95772.28;;;5.51;92.70
77702;BME280;66868;42.708;23.404;2024-02-21T02:08:14;95779.72;;;5.54;93.02
77702;BME280;66868;42.708;23.404;2024-02-21T02:10:41;95768.28;;;5.44;92.76
77702;BME280;66868;42.708;23.404;2024-02-21T02:13:06;95782.41;;;5.48;92.93
77702;BME280;66868;42.708;23.404;2024-02-21T02:15:44;95775.81;;;5.44;93.74
77702;BME280;66868;42.708;23.404;2024-02-21T02:18:11;95759.22;;;5.40;93.09
77702;BME280;66868;42.708;23.404;2024-02-21T02:20:37;95693.28;;;5.04;92.57
77702;BME280;66868;42.708;23.404;2024-02-21T02:23:10;95746.59;;;5.42;92.35
77702;BME280;66868;42.708;23.404;2024-02-21T02:25:37;95742.53;;;5.38;92.77
77702;BME280;66868;42.708;23.404;2024-02-21T02:28:06;95740.94;;;5.35;92.90
77702;BME280;66868;42.708;23.404;2024-02-21T02:30:33;95742.59;;;5.36;92.54
77702;BME280;66868;42.708;23.404;2024-02-21T02:33:00;95764.81;;;5.48;92.50
77702;BME280;66868;42.708;23.404;2024-02-21T02:35:25;95756.63;;;5.42;93.13
77702;BME280;66868;42.708;23.404;2024-02-21T02:37:51;95757.41;;;5.45;93.34
77702;BME280;66868;42.708;23.404;2024-02-21T02:40:18;95760.84;;;5.41;92.96
77702;BME280;66868;42.708;23.404;2024-02-21T02:42:43;95736.94;;;5.28;92.94
77702;BME280;66868;42.708;23.404;2024-02-21T02:45:09;95750.88;;;5.38;92.66
77702;BME280;66868;42.708;23.404;2024-02-21T02:47:35;95733.72;;;5.23;93.79
77702;BME280;66868;42.708;23.404;2024-02-21T02:50:01;95753.44;;;5.37;93.07
77702;BME280;66868;42.708;23.404;2024-02-21T02:52:26;95760.84;;;5.41;93.34
77702;BME280;66868;42.708;23.404;2024-02-21T02:54:52;95764.13;;;5.43;93.80
77702;BME280;66868;42.708;23.404;2024-02-21T02:57:20;95736.09;;;5.29;93.32
77702;BME280;66868;42.708;23.404;2024-02-21T02:59:49;95766.38;;;5.52;93.08
77702;BME280;66868;42.708;23.404;2024-02-21T03:02:14;95764.72;;;5.51;93.38
77702;BME280;66868;42.708;23.404;2024-02-21T03:04:40;95762.47;;;5.42;93.40
77702;BME280;66868;42.708;23.404;2024-02-21T03:07:06;95742.84;;;5.27;93.77
77702;BME280;66868;42.708;23.404;2024-02-21T03:09:31;95766.75;;;5.40;94.13
77702;BME280;66868;42.708;23.404;2024-02-21T03:11:57;95760.75;;;5.44;93.29
77702;BME280;66868;42.708;23.404;2024-02-21T03:14:28;95767.50;;;5.42;92.85
77702;BME280;66868;42.708;23.404;2024-02-21T03:16:53;95771.75;;;5.40;93.82
77702;BME280;66868;42.708;23.404;2024-02-21T03:19:19;95774.53;;;5.31;93.96
77702;BME280;66868;42.708;23.404;2024-02-21T03:21:44;95770.47;;;5.27;94.31
77702;BME280;66868;42.708;23.404;2024-02-21T03:24:10;95773.03;;;5.24;93.75
77702;BME280;66868;42.708;23.404;2024-02-21T03:26:35;95779.81;;;5.22;93.99
77702;BME280;66868;42.708;23.404;2024-02-21T03:29:01;95778.25;;;5.18;94.90
77702;BME280;66868;42.708;23.404;2024-02-21T03:31:26;95766.44;;;5.20;94.46
77702;BME280;66868;42.708;23.404;2024-02-21T03:33:52;95777.63;;;5.39;93.67
77702;BME280;66868;42.708;23.404;2024-02-21T03:36:18;95779.09;;;5.46;94.10
77702;BME280;66868;42.708;23.404;2024-02-21T03:38:43;95790.53;;;5.56;93.26
77702;BME280;66868;42.708;23.404;2024-02-21T03:41:10;95793.84;;;5.58;93.41
77702;BME280;66868;42.708;23.404;2024-02-21T03:43:37;95795.00;;;5.47;93.71
77702;BME280;66868;42.708;23.404;2024-02-21T03:46:03;95794.97;;;5.48;94.13
77702;BME280;66868;42.708;23.404;2024-02-21T03:48:29;95794.00;;;5.52;93.80
77702;BME280;66868;42.708;23.404;2024-02-21T03:50:54;95789.84;;;5.51;93.74
77702;BME280;66868;42.708;23.404;2024-02-21T03:53:20;95784.94;;;5.47;93.62
77702;BME280;66868;42.708;23.404;2024-02-21T03:55:45;95792.34;;;5.51;93.43
77702;BME280;66868;42.708;23.404;2024-02-21T03:58:11;95787.44;;;5.48;92.89
77702;BME280;66868;42.708;23.404;2024-02-21T04:00:36;95793.75;;;5.61;92.74
77702;BME280;66868;42.708;23.404;2024-02-21T04:03:02;95788.72;;;5.61;92.83
77702;BME280;66868;42.708;23.404;2024-02-21T04:05:28;95777.47;;;5.45;93.74
77702;BME280;66868;42.708;23.404;2024-02-21T04:07:53;95795.56;;;5.56;93.75
77702;BME280;66868;42.708;23.404;2024-02-21T04:10:19;95788.81;;;5.58;92.72
77702;BME280;66868;42.708;23.404;2024-02-21T04:12:44;95777.28;;;5.51;93.20
77702;BME280;66868;42.708;23.404;2024-02-21T04:15:10;95783.25;;;5.47;93.69
77702;BME280;66868;42.708;23.404;2024-02-21T04:17:36;95770.41;;;5.28;94.51
77702;BME280;66868;42.708;23.404;2024-02-21T04:20:05;95779.69;;;5.26;94.74
77702;BME280;66868;42.708;23.404;2024-02-21T04:22:31;95787.78;;;5.36;94.75
77702;BME280;66868;42.708;23.404;2024-02-21T04:25:00;95790.03;;;5.45;93.92
77702;BME280;66868;42.708;23.404;2024-02-21T04:27:26;95790.53;;;5.56;93.56
77702;BME280;66868;42.708;23.404;2024-02-21T04:29:52;95785.34;;;5.62;94.14
77702;BME280;66868;42.708;23.404;2024-02-21T04:32:18;95783.53;;;5.67;93.62
77702;BME280;66868;42.708;23.404;2024-02-21T04:34:43;95788.47;;;5.70;92.88
77702;BME280;66868;42.708;23.404;2024-02-21T04:37:09;95753.72;;;5.55;92.86
77702;BME280;66868;42.708;23.404;2024-02-21T04:39:35;95789.13;;;5.77;92.78
77702;BME280;66868;42.708;23.404;2024-02-21T04:42:00;95794.88;;;5.81;93.13
77702;BME280;66868;42.708;23.404;2024-02-21T04:44:26;95793.16;;;5.83;92.78
77702;BME280;66868;42.708;23.404;2024-02-21T04:46:51;95791.31;;;5.88;92.43
77702;BME280;66868;42.708;23.404;2024-02-21T04:49:17;95793.78;;;5.91;92.96
77702;BME280;66868;42.708;23.404;2024-02-21T04:51:42;95792.16;;;5.88;92.89
77702;BME280;66868;42.708;23.404;2024-02-21T04:54:08;95787.13;;;5.88;92.44
77702;BME280;66868;42.708;23.404;2024-02-21T04:56:34;95788.03;;;5.86;92.95
77702;BME280;66868;42.708;23.404;2024-02-21T04:59:00;95791.00;;;5.69;92.76
77702;BME280;66868;42.708;23.404;2024-02-21T05:01:25;95794.66;;;5.59;93.18
77702;BME280;66868;42.708;23.404;2024-02-21T05:03:50;95800.78;;;5.50;93.51
77702;BME280;66868;42.708;23.404;2024-02-21T05:06:16;95779.56;;;5.31;94.04
77702;BME280;66868;42.708;23.404;2024-02-21T05:08:42;95802.59;;;5.45;93.61
77702;BME280;66868;42.708;23.404;2024-02-21T05:11:07;95793.56;;;5.38;93.49
77702;BME280;66868;42.708;23.404;2024-02-21T05:13:33;95801.34;;;5.29;93.99
77702;BME280;66868;42.708;23.404;2024-02-21T05:15:58;95802.41;;;5.20;95.08
77702;BME280;66868;42.708;23.404;2024-02-21T05:18:27;95809.13;;;5.20;95.19
77702;BME280;66868;42.708;23.404;2024-02-21T05:20:52;95813.44;;;5.15;95.27
77702;BME280;66868;42.708;23.404;2024-02-21T05:23:18;95818.84;;;5.00;96.05
77702;BME280;66868;42.708;23.404;2024-02-21T05:25:43;95814.75;;;4.96;96.28
77702;BME280;66868;42.708;23.404;2024-02-21T05:28:09;95796.09;;;4.73;96.89
77702;BME280;66868;42.708;23.404;2024-02-21T05:30:34;95779.81;;;4.57;97.58
77702;BME280;66868;42.708;23.404;2024-02-21T05:33:06;95796.09;;;4.73;97.19
77702;BME280;66868;42.708;23.404;2024-02-21T05:35:32;95814.47;;;4.75;98.27
77702;BME280;66868;42.708;23.404;2024-02-21T05:37:58;95809.44;;;4.75;97.64
77702;BME280;66868;42.708;23.404;2024-02-21T05:40:24;95809.59;;;4.69;98.10
77702;BME280;66868;42.708;23.404;2024-02-21T05:42:50;95807.06;;;4.69;97.93
77702;BME280;66868;42.708;23.404;2024-02-21T05:45:17;95808.09;;;4.62;98.71
77702;BME280;66868;42.708;23.404;2024-02-21T05:47:43;95807.31;;;4.60;99.59
77702;BME280;66868;42.708;23.404;2024-02-21T05:50:09;95804.78;;;4.60;99.22
77702;BME280;66868;42.708;23.404;2024-02-21T05:52:35;95802.25;;;4.62;98.64
77702;BME280;66868;42.708;23.404;2024-02-21T05:55:01;95796.09;;;4.73;98.23
77702;BME280;66868;42.708;23.404;2024-02-21T05:57:26;95812.66;;;4.80;97.61
77702;BME280;66868;42.708;23.404;2024-02-21T05:59:52;95817.75;;;4.77;97.75
77702;BME280;66868;42.708;23.404;2024-02-21T06:02:17;95825.91;;;4.85;96.81
77702;BME280;66868;42.708;23.404;2024-02-21T06:04:42;95824.31;;;4.81;96.99
77702;BME280;66868;42.708;23.404;2024-02-21T06:07:09;95827.53;;;4.86;96.32
77702;BME280;66868;42.708;23.404;2024-02-21T06:09:35;95841.22;;;4.75;96.83
77702;BME280;66868;42.708;23.404;2024-02-21T06:12:00;95835.56;;;4.67;97.32
77702;BME280;66868;42.708;23.404;2024-02-21T06:14:26;95842.44;;;4.59;97.48
77702;BME280;66868;42.708;23.404;2024-02-21T06:16:51;95846.69;;;4.55;97.56
77702;BME280;66868;42.708;23.404;2024-02-21T06:19:17;95853.00;;;4.71;98.46
77702;BME280;66868;42.708;23.404;2024-02-21T06:21:42;95821.28;;;4.70;98.35
77702;BME280;66868;42.708;23.404;2024-02-21T06:24:08;95845.16;;;4.85;98.55
77702;BME280;66868;42.708;23.404;2024-02-21T06:26:33;95847.47;;;4.93;98.54
77702;BME280;66868;42.708;23.404;2024-02-21T06:28:59;95848.44;;;4.87;98.12
77702;BME280;66868;42.708;23.404;2024-02-21T06:31:29;95850.94;;;4.87;97.35
77702;BME280;66868;42.708;23.404;2024-02-21T06:33:54;95837.78;;;4.77;97.60
77702;BME280;66868;42.708;23.404;2024-02-21T06:36:20;95860.84;;;4.93;96.97
77702;BME280;66868;42.708;23.404;2024-02-21T06:38:45;95841.75;;;4.86;96.70
77702;BME280;66868;42.708;23.404;2024-02-21T06:41:15;95859.88;;;4.99;96.79
77702;BME280;66868;42.708;23.404;2024-02-21T06:43:41;95863.72;;;5.12;96.85
77702;BME280;66868;42.708;23.404;2024-02-21T06:46:06;95866.75;;;5.23;96.67
77702;BME280;66868;42.708;23.404;2024-02-21T06:48:32;95877.38;;;5.32;96.98
77702;BME280;66868;42.708;23.404;2024-02-21T06:50:57;95880.34;;;5.47;96.29
77702;BME280;66868;42.708;23.404;2024-02-21T06:53:23;95881.63;;;5.63;95.74
77702;BME280;66868;42.708;23.404;2024-02-21T06:55:48;95873.72;;;5.75;95.32
77702;BME280;66868;42.708;23.404;2024-02-21T06:58:13;95878.41;;;5.89;94.32
77702;BME280;66868;42.708;23.404;2024-02-21T07:00:42;95881.44;;;6.00;93.59
77702;BME280;66868;42.708;23.404;2024-02-21T07:03:08;95874.97;;;6.20;93.16
77702;BME280;66868;42.708;23.404;2024-02-21T07:05:33;95873.88;;;6.29;93.64
77702;BME280;66868;42.708;23.404;2024-02-21T07:07:59;95877.81;;;6.38;92.23
77702;BME280;66868;42.708;23.404;2024-02-21T07:10:25;95869.22;;;6.45;92.11
77702;BME280;66868;42.708;23.404;2024-02-21T07:12:50;95880.53;;;6.58;91.77
77702;BME280;66868;42.708;23.404;2024-02-21T07:15:18;95881.47;;;6.55;91.18
77702;BME280;66868;42.708;23.404;2024-02-21T07:17:43;95886.38;;;6.60;90.87
77702;BME280;66868;42.708;23.404;2024-02-21T07:20:09;95884.75;;;6.57;90.92
77702;BME280;66868;42.708;23.404;2024-02-21T07:22:34;95884.38;;;6.70;90.83
77702;BME280;66868;42.708;23.404;2024-02-21T07:25:00;95888.28;;;6.80;89.95
77702;BME280;66868;42.708;23.404;2024-02-21T07:27:25;95877.41;;;6.78;90.29
77702;BME280;66868;42.708;23.404;2024-02-21T07:29:56;95897.16;;;6.90;89.77
77702;BME280;66868;42.708;23.404;2024-02-21T07:32:21;95890.28;;;6.95;90.07
77702;BME280;66868;42.708;23.404;2024-02-21T07:34:47;95890.78;;;7.06;89.52
77702;BME280;66868;42.708;23.404;2024-02-21T07:37:12;95886.34;;;7.13;89.59
77702;BME280;66868;42.708;23.404;2024-02-21T07:39:38;95892.69;;;7.24;89.04
77702;BME280;66868;42.708;23.404;2024-02-21T07:42:03;95860.88;;;7.22;89.12
77702;BME280;66868;42.708;23.404;2024-02-21T07:44:29;95868.69;;;7.39;90.57
77702;BME280;66868;42.708;23.404;2024-02-21T07:46:54;95887.81;;;7.68;89.35
77702;BME280;66868;42.708;23.404;2024-02-21T07:49:20;95881.50;;;7.81;87.66
77702;BME280;66868;42.708;23.404;2024-02-21T07:51:45;95884.56;;;7.89;87.94
77702;BME280;66868;42.708;23.404;2024-02-21T07:54:11;95880.03;;;7.98;88.12
77702;BME280;66868;42.708;23.404;2024-02-21T07:56:36;95882.31;;;8.05;86.69
77702;BME280;66868;42.708;23.404;2024-02-21T07:59:02;95885.66;;;8.05;86.17
77702;BME280;66868;42.708;23.404;2024-02-21T08:01:28;95878.69;;;8.12;85.32
77702;BME280;66868;42.708;23.404;2024-02-21T08:03:53;95885.09;;;7.97;84.28
77702;BME280;66868;42.708;23.404;2024-02-21T08:06:19;95877.44;;;8.00;83.58
77702;BME280;66868;42.708;23.404;2024-02-21T08:08:44;95876.97;;;7.90;83.64
77702;BME280;66868;42.708;23.404;2024-02-21T08:11:09;95872.13;;;7.84;84.14
77702;BME280;66868;42.708;23.404;2024-02-21T08:13:35;95885.22;;;7.94;84.27
77702;BME280;66868;42.708;23.404;2024-02-21T08:16:01;95882.44;;;8.02;83.85
77702;BME280;66868;42.708;23.404;2024-02-21T08:18:26;95882.72;;;7.94;83.44
77702;BME280;66868;42.708;23.404;2024-02-21T08:20:51;95879.75;;;7.83;83.77
77702;BME280;66868;42.708;23.404;2024-02-21T08:23:18;95869.66;;;7.83;84.29
77702;BME280;66868;42.708;23.404;2024-02-21T08:25:44;95876.84;;;7.93;84.49
77702;BME280;66868;42.708;23.404;2024-02-21T08:28:10;95871.59;;;7.99;83.73
77702;BME280;66868;42.708;23.404;2024-02-21T08:30:35;95863.19;;;7.99;83.69
77702;BME280;66868;42.708;23.404;2024-02-21T08:33:01;95879.16;;;7.99;83.04
77702;BME280;66868;42.708;23.404;2024-02-21T08:35:26;95873.81;;;8.07;82.78
77702;BME280;66868;42.708;23.404;2024-02-21T08:37:52;95841.44;;;7.96;82.62
77702;BME280;66868;42.708;23.404;2024-02-21T08:40:17;95881.59;;;8.24;82.32
77702;BME280;66868;42.708;23.404;2024-02-21T08:42:46;95885.31;;;8.37;82.50
77702;BME280;66868;42.708;23.404;2024-02-21T08:45:12;95879.69;;;8.53;81.96
77702;BME280;66868;42.708;23.404;2024-02-21T08:47:40;95877.34;;;8.48;81.64
77702;BME280;66868;42.708;23.404;2024-02-21T08:50:07;95881.22;;;8.57;81.91
77702;BME280;66868;42.708;23.404;2024-02-21T08:52:32;95884.03;;;8.71;78.85
77702;BME280;66868;42.708;23.404;2024-02-21T08:54:58;95850.25;;;8.53;78.49
77702;BME280;66868;42.708;23.404;2024-02-21T08:57:23;95876.28;;;8.75;77.19
77702;BME280;66868;42.708;23.404;2024-02-21T08:59:49;95877.75;;;8.81;76.96
77702;BME280;66868;42.708;23.404;2024-02-21T09:02:14;95885.50;;;8.76;77.90
77702;BME280;66868;42.708;23.404;2024-02-21T09:04:42;95884.03;;;8.71;77.55
77702;BME280;66868;42.708;23.404;2024-02-21T09:07:11;95843.78;;;8.68;79.32
77702;BME280;66868;42.708;23.404;2024-02-21T09:09:37;95874.63;;;8.96;77.38
77702;BME280;66868;42.708;23.404;2024-02-21T09:12:09;95873.53;;;9.02;78.18
77702;BME280;66868;42.708;23.404;2024-02-21T09:14:37;95874.38;;;9.02;78.24
77702;BME280;66868;42.708;23.404;2024-02-21T09:17:04;95863.00;;;8.92;77.21
77702;BME280;66868;42.708;23.404;2024-02-21T09:19:29;95875.31;;;9.00;76.98
77702;BME280;66868;42.708;23.404;2024-02-21T09:21:54;95857.31;;;8.87;78.14
77702;BME280;66868;42.708;23.404;2024-02-21T09:24:20;95844.63;;;8.88;77.64
77702;BME280;66868;42.708;23.404;2024-02-21T09:26:46;95889.50;;;9.02;77.24
77702;BME280;66868;42.708;23.404;2024-02-21T09:29:11;95877.53;;;9.07;76.00
77702;BME280;66868;42.708;23.404;2024-02-21T09:31:37;95856.91;;;8.76;75.03
77702;BME280;66868;42.708;23.404;2024-02-21T09:34:04;95881.81;;;8.85;75.07
77702;BME280;66868;42.708;23.404;2024-02-21T09:36:30;95873.59;;;8.80;74.37
77702;BME280;66868;42.708;23.404;2024-02-21T09:38:56;95875.34;;;8.78;74.98
77702;BME280;66868;42.708;23.404;2024-02-21T09:41:25;95888.34;;;8.69;74.33
77702;BME280;66868;42.708;23.404;2024-02-21T09:43:54;95867.78;;;8.56;74.57
77702;BME280;66868;42.708;23.404;2024-02-21T09:46:23;95846.38;;;8.45;76.03
77702;BME280;66868;42.708;23.404;2024-02-21T09:51:16;95852.13;;;8.48;75.96
77702;BME280;66868;42.708;23.404;2024-02-21T09:53:43;95879.88;;;8.70;74.85
77702;BME280;66868;42.708;23.404;2024-02-21T09:56:10;95878.25;;;8.69;75.48
77702;BME280;66868;42.708;23.404;2024-02-21T09:58:36;95877.25;;;8.73;75.78
77702;BME280;66868;42.708;23.404;2024-02-21T10:01:02;95872.00;;;8.77;76.03
77702;BME280;66868;42.708;23.404;2024-02-21T10:03:32;95872.19;;;8.73;76.09
77702;BME280;66868;42.708;23.404;2024-02-21T10:05:59;95856.91;;;8.76;75.62
77702;BME280;66868;42.708;23.404;2024-02-21T10:08:26;95872.97;;;8.95;73.62
77702;BME280;66868;42.708;23.404;2024-02-21T10:10:51;95868.38;;;9.05;72.55
77702;BME280;66868;42.708;23.404;2024-02-21T10:13:30;95863.78;;;9.14;72.36
77702;BME280;66868;42.708;23.404;2024-02-21T10:18:28;95860.25;;;9.39;70.40
77702;BME280;66868;42.708;23.404;2024-02-21T10:21:19;95857.84;;;9.36;71.02
77702;BME280;66868;42.708;23.404;2024-02-21T10:23:47;95850.88;;;9.41;71.42
77702;BME280;66868;42.708;23.404;2024-02-21T10:26:14;95858.03;;;9.51;71.48
77702;BME280;66868;42.708;23.404;2024-02-21T10:28:40;95844.56;;;9.51;70.17
77702;BME280;66868;42.708;23.404;2024-02-21T10:31:11;95840.63;;;9.64;71.00
77702;BME280;66868;42.708;23.404;2024-02-21T10:33:37;95831.13;;;9.69;70.73
77702;BME280;66868;42.708;23.404;2024-02-21T10:36:10;95813.06;;;9.58;69.95
77702;BME280;66868;42.708;23.404;2024-02-21T10:38:39;95824.78;;;9.79;69.70
77702;BME280;66868;42.708;23.404;2024-02-21T10:41:05;95796.34;;;9.74;69.68
77702;BME280;66868;42.708;23.404;2024-02-21T10:43:38;95806.59;;;9.90;68.72
77702;BME280;66868;42.708;23.404;2024-02-21T10:46:08;95799.16;;;9.87;68.46
77702;BME280;66868;42.708;23.404;2024-02-21T10:48:44;95804.06;;;10.08;68.53
77702;BME280;66868;42.708;23.404;2024-02-21T10:51:20;95788.75;;;10.11;67.77
77702;BME280;66868;42.708;23.404;2024-02-21T10:59:11;95770.47;;;10.59;66.68
77702;BME280;66868;42.708;23.404;2024-02-21T11:01:38;95779.78;;;10.93;66.90
77702;BME280;66868;42.708;23.404;2024-02-21T11:04:04;95778.59;;;11.18;65.97
77702;BME280;66868;42.708;23.404;2024-02-21T11:06:32;95775.06;;;11.37;65.04
77702;BME280;66868;42.708;23.404;2024-02-21T11:09:06;95769.03;;;11.56;64.72
77702;BME280;66868;42.708;23.404;2024-02-21T11:11:33;95770.63;;;11.74;59.84
77702;BME280;66868;42.708;23.404;2024-02-21T11:14:32;95757.47;;;11.83;61.57
77702;BME280;66868;42.708;23.404;2024-02-21T11:16:58;95763.13;;;11.88;60.46
77702;BME280;66868;42.708;23.404;2024-02-21T11:19:27;95761.38;;;11.88;60.07
77702;BME280;66868;42.708;23.404;2024-02-21T11:21:54;95754.41;;;12.08;59.31
77702;BME280;66868;42.708;23.404;2024-02-21T11:26:56;95751.81;;;11.93;58.45
77702;BME280;66868;42.708;23.404;2024-02-21T11:29:25;95752.06;;;12.05;57.20
77702;BME280;66868;42.708;23.404;2024-02-21T11:31:54;95752.84;;;12.21;57.28
77702;BME280;66868;42.708;23.404;2024-02-21T11:34:20;95758.41;;;12.27;54.37
77702;BME280;66868;42.708;23.404;2024-02-21T11:36:50;95754.56;;;12.36;51.95
77702;BME280;66868;42.708;23.404;2024-02-21T11:39:23;95748.06;;;12.46;51.92
77702;BME280;66868;42.708;23.404;2024-02-21T11:42:06;95746.78;;;12.69;51.21
77702;BME280;66868;42.708;23.404;2024-02-21T11:44:34;95740.00;;;12.83;51.06
77702;BME280;66868;42.708;23.404;2024-02-21T11:47:00;95738.59;;;12.94;51.40
77702;BME280;66868;42.708;23.404;2024-02-21T11:49:28;95727.75;;;12.76;52.07
77702;BME280;66868;42.708;23.404;2024-02-21T11:52:00;95734.78;;;12.57;52.44
77702;BME280;66868;42.708;23.404;2024-02-21T11:54:27;95737.00;;;12.47;52.27
77702;BME280;66868;42.708;23.404;2024-02-21T11:56:53;95740.31;;;12.33;53.73
77702;BME280;66868;42.708;23.404;2024-02-21T11:59:19;95710.88;;;12.00;54.30
77702;BME280;66868;42.708;23.404;2024-02-21T12:01:44;95742.31;;;11.81;54.81
77702;BME280;66868;42.708;23.404;2024-02-21T12:04:10;95725.69;;;11.60;55.88
77702;BME280;66868;42.708;23.404;2024-02-21T12:06:36;95721.81;;;11.53;55.73
77702;BME280;66868;42.708;23.404;2024-02-21T12:09:01;95716.47;;;11.26;56.89
77702;BME280;66868;42.708;23.404;2024-02-21T12:11:27;95717.19;;;11.13;58.67
77702;BME280;66868;42.708;23.404;2024-02-21T12:14:02;95729.78;;;10.97;58.14
77702;BME280;66868;42.708;23.404;2024-02-21T12:16:32;95708.22;;;10.73;58.44
77702;BME280;66868;42.708;23.404;2024-02-21T12:18:58;95726.28;;;10.82;57.95
77702;BME280;66868;42.708;23.404;2024-02-21T12:21:29;95714.03;;;10.75;58.87
77702;BME280;66868;42.708;23.404;2024-02-21T12:23:55;95720.97;;;10.71;59.99
77702;BME280;66868;42.708;23.404;2024-02-21T12:26:22;95712.59;;;10.69;57.76
77702;BME280;66868;42.708;23.404;2024-02-21T12:28:47;95708.75;;;10.62;58.46
77702;BME280;66868;42.708;23.404;2024-02-21T12:31:13;95700.72;;;10.54;58.98
77702;BME280;66868;42.708;23.404;2024-02-21T12:33:39;95709.72;;;10.59;58.93
77702;BME280;66868;42.708;23.404;2024-02-21T12:36:05;95708.00;;;10.60;58.32
77702;BME280;66868;42.708;23.404;2024-02-21T12:38:30;95684.47;;;10.41;59.35
77702;BME280;66868;42.708;23.404;2024-02-21T12:40:56;95698.91;;;10.56;59.06
77702;BME280;66868;42.708;23.404;2024-02-21T12:43:23;95686.41;;;10.53;58.88
77702;BME280;66868;42.708;23.404;2024-02-21T12:45:48;95705.63;;;10.57;59.75
77702;BME280;66868;42.708;23.404;2024-02-21T12:48:14;95701.69;;;10.51;59.40
77702;BME280;66868;42.708;23.404;2024-02-21T12:50:42;95698.47;;;10.48;61.35
77702;BME280;66868;42.708;23.404;2024-02-21T12:53:13;95698.03;;;10.40;64.63
77702;BME280;66868;42.708;23.404;2024-02-21T12:55:40;95698.94;;;10.22;65.86
77702;BME280;66868;42.708;23.404;2024-02-21T12:58:06;95704.00;;;10.22;65.98
77702;BME280;66868;42.708;23.404;2024-02-21T13:00:32;95702.75;;;10.11;66.24
77702;BME280;66868;42.708;23.404;2024-02-21T13:02:58;95697.31;;;10.02;66.80
77702;BME280;66868;42.708;23.404;2024-02-21T13:05:23;95675.31;;;9.85;66.27
77702;BME280;66868;42.708;23.404;2024-02-21T13:07:49;95693.19;;;9.99;67.09